Prabhu Sakhawat — AVES — position and weather

sailwx.info

Track history (hours):
 
Tides and Currents Weather Stations Pressure Air Temp Water Temp Dewpoint Dewpoint Depression Visibility Wind Speed Wind Dir Waves Ship Positions

Prabhu Sakhawat

Last reported at 2018-Jan-19 15:08 UTC. Time now 2018-Jan-23 19:23 UTC.
Position N 41°17' E 140°10'.

Length 225 m; draft 12.7 m.

Type: Cargo ship. MMSI: 419099500.

Date/timePositionNaut miles runAvg speedWind from/ knotsBaromVisibWave heightAir tempDewpointWater temp
2018-Jan-19 15:08N 41°17' E 140°10'310.7
2018-Jan-19 14:52N 41°19' E 140°13'410.0
2018-Jan-19 14:29N 41°21' E 140°18'510.4
2018-Jan-19 13:58N 41°23' E 140°24'511.1
2018-Jan-19 13:30N 41°26' E 140°30'611.0
2018-Jan-19 13:00N 41°30' E 140°36'611.8
2018-Jan-19 12:30N 41°33' E 140°42'611.9
2018-Jan-19 12:00N 41°36' E 140°49'611.5
2018-Jan-19 11:30N 41°37' E 140°56'612.3
2018-Jan-19 11:00N 41°37' E 141°05'713.2
2018-Jan-19 10:30N 41°37' E 141°13'612.3
2018-Jan-19 10:00N 41°37' E 141°22'611.7
2018-Jan-19 09:30N 41°37' E 141°30'611.8
2018-Jan-19 08:59N 41°36' E 141°38'  
Track history (hours):
 
Tides and Currents Weather Stations Pressure Air Temp Water Temp Dewpoint Dewpoint Depression Visibility Wind Speed Wind Dir Waves Ship Positions

Prabhu Sakhawat

Last reported at 2018-Jan-19 15:08 UTC. Time now 2018-Jan-23 19:23 UTC.
Position N 41°17' E 140°10'.

Length 225 m; draft 12.7 m.

Type: Cargo ship. MMSI: 419099500.

Date/timePositionNaut miles runAvg speedWind from/ knotsBaromVisibWave heightAir tempDewpointWater temp
2018-Jan-19 15:08N 41°17' E 140°10'310.7
2018-Jan-19 14:52N 41°19' E 140°13'410.0
2018-Jan-19 14:29N 41°21' E 140°18'510.4
2018-Jan-19 13:58N 41°23' E 140°24'511.1
2018-Jan-19 13:30N 41°26' E 140°30'611.0
2018-Jan-19 13:00N 41°30' E 140°36'611.8
2018-Jan-19 12:30N 41°33' E 140°42'611.9
2018-Jan-19 12:00N 41°36' E 140°49'611.5
2018-Jan-19 11:30N 41°37' E 140°56'612.3
2018-Jan-19 11:00N 41°37' E 141°05'713.2
2018-Jan-19 10:30N 41°37' E 141°13'612.3
2018-Jan-19 10:00N 41°37' E 141°22'611.7
2018-Jan-19 09:30N 41°37' E 141°30'611.8
2018-Jan-19 08:59N 41°36' E 141°38'  

Dump ship's entire track history